Time;durP1;ratioP1;P1;durP2;ratioP2;P2;SDS_P1;SDS_P2;PMS_P1;PMS_P2;Temp;Humidity;BMP_temperature;BMP_pressure;BME280_temperature;BME280_humidity;BME280_pressure;Samples;Min_cycle;Max_cycle;Signal;HPM_P1;HPM_P2
2021/08/02 00:01:26;;;;;;;12.13;3.85;;;;;;;;;;4976859;28;20055;-74
2021/08/02 00:03:52;;;;;;;11.88;4.63;;;;;;;;;;4977088;28;20039;-73
2021/08/02 00:06:22;;;;;;;7.35;3.92;;;;;;;;;;4976782;28;20105;-74
2021/08/02 00:09:02;;;;;;;8.13;4.45;;;;;;;;;;4977031;28;20065;-74
2021/08/02 00:11:33;;;;;;;10.18;4.45;;;;;;;;;;4959032;28;20514;-75
2021/08/02 00:14:00;;;;;;;9.82;4.43;;;;;;;;;;4976955;28;20027;-75
2021/08/02 00:16:26;;;;;;;7.72;4.22;;;;;;;;;;4976610;28;20098;-74
2021/08/02 00:18:52;;;;;;;9.00;4.28;;;;;;;;;;4976562;28;20388;-75
2021/08/02 00:21:19;;;;;;;9.15;4.18;;;;;;;;;;4976504;28;20092;-74
2021/08/02 00:23:45;;;;;;;9.43;4.18;;;;;;;;;;4976482;28;20031;-75
2021/08/02 00:26:12;;;;;;;6.72;3.33;;;;;;;;;;4976400;28;20050;-75
2021/08/02 00:28:38;;;;;;;8.23;4.32;;;;;;;;;;4976297;28;20035;-75
2021/08/02 00:31:04;;;;;;;14.02;4.03;;;;;;;;;;4976228;28;20037;-75
2021/08/02 00:33:30;;;;;;;7.78;3.42;;;;;;;;;;4976506;28;20510;-74
2021/08/02 00:36:02;;;;;;;6.70;3.35;;;;;;;;;;4976220;28;20023;-74
2021/08/02 00:38:54;;;;;;;10.90;3.80;;;;;;;;;;4976096;28;20030;-75
2021/08/02 00:41:20;;;;;;;8.80;4.35;;;;;;;;;;4972504;28;20059;-74
2021/08/02 00:43:55;;;;;;;10.02;4.95;;;;;;;;;;4958756;28;20105;-74
2021/08/02 00:46:27;;;;;;;7.63;4.25;;;;;;;;;;4957523;28;20113;-74
2021/08/02 00:48:58;;;;;;;11.73;4.85;;;;;;;;;;4975965;28;20109;-75
2021/08/02 00:51:25;;;;;;;12.05;5.13;;;;;;;;;;4976429;28;20054;-74
2021/08/02 00:53:51;;;;;;;9.38;4.78;;;;;;;;;;4976197;28;20051;-74
2021/08/02 00:56:18;;;;;;;7.80;4.32;;;;;;;;;;4975846;28;20561;-74
2021/08/02 00:58:45;;;;;;;8.95;5.00;;;;;;;;;;4975794;28;20391;-74
2021/08/02 01:01:11;;;;;;;7.43;4.25;;;;;;;;;;4975758;28;20105;-75
2021/08/02 01:03:41;;;;;;;7.78;4.90;;;;;;;;;;4975733;28;20026;-74
2021/08/02 01:06:07;;;;;;;11.35;5.00;;;;;;;;;;4975670;28;20437;-73
2021/08/02 01:08:36;;;;;;;9.85;4.63;;;;;;;;;;4975684;28;20027;-74
2021/08/02 01:11:04;;;;;;;9.83;4.80;;;;;;;;;;4975551;28;20035;-74
2021/08/02 01:13:32;;;;;;;13.60;5.00;;;;;;;;;;4975527;28;20077;-75
2021/08/02 01:16:03;;;;;;;9.80;4.72;;;;;;;;;;4975503;28;20030;-74
2021/08/02 01:18:30;;;;;;;9.77;4.78;;;;;;;;;;4975736;28;20030;-75
2021/08/02 01:20:58;;;;;;;7.97;4.13;;;;;;;;;;4975416;28;20027;-73
2021/08/02 01:23:25;;;;;;;16.80;4.90;;;;;;;;;;4975338;28;20104;-73
2021/08/02 01:25:55;;;;;;;10.70;5.05;;;;;;;;;;4975322;28;20038;-74
2021/08/02 01:28:21;;;;;;;10.85;4.95;;;;;;;;;;4975286;28;20054;-73
2021/08/02 01:30:47;;;;;;;10.75;4.38;;;;;;;;;;4975174;28;20541;-74
2021/08/02 01:33:13;;;;;;;10.85;4.40;;;;;;;;;;4975464;28;20054;-74
2021/08/02 01:35:40;;;;;;;14.55;4.97;;;;;;;;;;4975159;28;20027;-74
2021/08/02 01:38:06;;;;;;;10.18;4.53;;;;;;;;;;4975051;28;20018;-74
2021/08/02 01:40:32;;;;;;;9.65;4.47;;;;;;;;;;4974677;28;20514;-73
2021/08/02 01:43:02;;;;;;;9.35;4.68;;;;;;;;;;4975031;28;20045;-74
2021/08/02 01:45:28;;;;;;;;;;;;;;;;;;4975727;28;20483;-73
2021/08/02 01:48:05;;;;;;;10.10;4.30;;;;;;;;;;4975223;28;19913;-75
2021/08/02 01:50:42;;;;;;;11.77;4.65;;;;;;;;;;4975430;28;20058;-74
2021/08/02 01:53:26;;;;;;;11.27;4.53;;;;;;;;;;4957307;28;20030;-75
2021/08/02 01:55:59;;;;;;;10.70;4.55;;;;;;;;;;4974660;28;20105;-74
2021/08/02 01:58:28;;;;;;;9.35;4.03;;;;;;;;;;4975033;28;20023;-74
2021/08/02 02:00:55;;;;;;;8.75;3.83;;;;;;;;;;4974758;28;20121;-73
2021/08/02 02:03:23;;;;;;;12.20;4.10;;;;;;;;;;4975224;28;20022;-73
2021/08/02 02:05:53;;;;;;;9.60;4.38;;;;;;;;;;4974961;28;20027;-74
2021/08/02 02:08:21;;;;;;;7.53;4.25;;;;;;;;;;4974976;28;20097;-73
2021/08/02 02:10:58;;;;;;;8.85;4.13;;;;;;;;;;4974846;28;20035;-74
2021/08/02 02:13:35;;;;;;;9.60;4.50;;;;;;;;;;4974668;28;20073;-75
2021/08/02 02:16:02;;;;;;;6.97;3.80;;;;;;;;;;4974889;28;20378;-74
2021/08/02 02:18:29;;;;;;;11.65;4.30;;;;;;;;;;4974498;28;20030;-73
2021/08/02 02:20:57;;;;;;;9.52;4.30;;;;;;;;;;4974791;28;20073;-75
2021/08/02 02:23:23;;;;;;;9.30;4.00;;;;;;;;;;4974740;28;20026;-74
2021/08/02 02:25:50;;;;;;;7.68;4.20;;;;;;;;;;4974496;28;20478;-74
2021/08/02 02:28:17;;;;;;;9.60;3.70;;;;;;;;;;4974741;28;20026;-73
2021/08/02 02:30:43;;;;;;;12.25;4.10;;;;;;;;;;4956999;28;20125;-74
2021/08/02 02:33:13;;;;;;;9.73;4.32;;;;;;;;;;4974380;28;20106;-74
2021/08/02 02:35:40;;;;;;;10.45;4.32;;;;;;;;;;4974378;28;20418;-73
2021/08/02 02:38:13;;;;;;;11.18;4.15;;;;;;;;;;4974270;28;20427;-74
2021/08/02 02:40:43;;;;;;;10.05;4.25;;;;;;;;;;4974016;28;20134;-75
2021/08/02 02:43:09;;;;;;;11.90;4.27;;;;;;;;;;4974343;28;20019;-74
2021/08/02 02:45:35;;;;;;;8.98;4.10;;;;;;;;;;4974343;28;20038;-74
2021/08/02 02:48:02;;;;;;;13.02;4.55;;;;;;;;;;4974314;28;20027;-73
2021/08/02 02:50:29;;;;;;;9.13;3.78;;;;;;;;;;4974117;28;20549;-75
2021/08/02 02:52:55;;;;;;;9.88;3.95;;;;;;;;;;4974500;28;20030;-74
2021/08/02 02:55:23;;;;;;;9.02;4.13;;;;;;;;;;4974191;28;20510;-74
2021/08/02 02:57:49;;;;;;;9.55;4.47;;;;;;;;;;4974171;28;20111;-74
2021/08/02 03:00:15;;;;;;;7.53;4.30;;;;;;;;;;4974210;28;20027;-74
2021/08/02 03:02:41;;;;;;;9.57;4.43;;;;;;;;;;4956733;28;20406;-74
2021/08/02 03:05:10;;;;;;;17.08;5.15;;;;;;;;;;4974129;28;20492;-74
2021/08/02 03:07:37;;;;;;;9.27;4.32;;;;;;;;;;4974108;28;20031;-75
2021/08/02 03:10:03;;;;;;;8.32;4.72;;;;;;;;;;4977434;28;20523;-74
2021/08/02 03:12:30;;;;;;;8.70;4.78;;;;;;;;;;4977725;28;20101;-74
2021/08/02 03:14:57;;;;;;;10.77;5.07;;;;;;;;;;4978016;28;20015;-74
2021/08/02 03:17:23;;;;;;;9.38;4.35;;;;;;;;;;4977687;28;20523;-74
2021/08/02 03:19:49;;;;;;;11.10;5.15;;;;;;;;;;4977610;28;20019;-74
2021/08/02 03:22:23;;;;;;;10.05;4.22;;;;;;;;;;4977837;28;20109;-74
2021/08/02 03:24:52;;;;;;;10.88;4.80;;;;;;;;;;4977864;28;20018;-74
2021/08/02 03:27:27;;;;;;;11.65;4.78;;;;;;;;;;4977806;28;20065;-75
2021/08/02 03:29:54;;;;;;;8.73;4.90;;;;;;;;;;4960131;28;20030;-74
2021/08/02 03:32:22;;;;;;;8.10;4.07;;;;;;;;;;4977620;28;20042;-74
2021/08/02 03:34:52;;;;;;;6.57;4.05;;;;;;;;;;4977327;28;20034;-75
2021/08/02 03:37:18;;;;;;;8.93;4.10;;;;;;;;;;4977306;28;20451;-74
2021/08/02 03:39:45;;;;;;;11.43;4.93;;;;;;;;;;4977228;28;20060;-74
2021/08/02 03:42:12;;;;;;;11.82;5.50;;;;;;;;;;4977223;28;20482;-74
2021/08/02 03:44:38;;;;;;;10.20;5.18;;;;;;;;;;4977196;28;20394;-74
2021/08/02 03:47:04;;;;;;;8.20;4.63;;;;;;;;;;4977136;28;20070;-75
2021/08/02 03:49:30;;;;;;;8.80;5.05;;;;;;;;;;4977411;28;20030;-75
2021/08/02 03:51:58;;;;;;;11.38;5.72;;;;;;;;;;4977294;28;20034;-75
2021/08/02 03:54:26;;;;;;;9.32;4.93;;;;;;;;;;4977048;28;20019;-74
2021/08/02 03:56:52;;;;;;;13.13;5.30;;;;;;;;;;4977510;28;20050;-75
2021/08/02 03:59:18;;;;;;;8.23;4.70;;;;;;;;;;4976888;28;20033;-74
2021/08/02 04:01:46;;;;;;;8.05;4.65;;;;;;;;;;4977166;28;20034;-75
2021/08/02 04:04:12;;;;;;;9.85;5.60;;;;;;;;;;4976838;28;20506;-74
2021/08/02 04:06:39;;;;;;;9.55;5.22;;;;;;;;;;4976816;28;20447;-74
2021/08/02 04:09:06;;;;;;;10.38;6.40;;;;;;;;;;4976765;28;20031;-74
2021/08/02 04:11:32;;;;;;;11.48;6.00;;;;;;;;;;4976912;28;20467;-74
2021/08/02 04:13:58;;;;;;;8.85;5.45;;;;;;;;;;4976690;28;20034;-73
2021/08/02 04:16:24;;;;;;;11.45;5.25;;;;;;;;;;4976618;28;20033;-74
2021/08/02 04:18:50;;;;;;;11.27;6.00;;;;;;;;;;4976576;28;20023;-73
2021/08/02 04:21:17;;;;;;;10.70;5.47;;;;;;;;;;4976522;28;20030;-74
2021/08/02 04:23:43;;;;;;;11.93;5.85;;;;;;;;;;4976479;28;20031;-74
2021/08/02 04:26:12;;;;;;;11.57;6.28;;;;;;;;;;4976716;28;20031;-73
2021/08/02 04:28:38;;;;;;;11.48;5.55;;;;;;;;;;4976452;28;20031;-73
2021/08/02 04:31:04;;;;;;;11.27;6.22;;;;;;;;;;4976277;28;20084;-73
2021/08/02 04:33:30;;;;;;;10.60;5.63;;;;;;;;;;4976572;28;20023;-74
2021/08/02 04:35:56;;;;;;;10.23;5.20;;;;;;;;;;4976284;28;20026;-73
2021/08/02 04:38:22;;;;;;;10.60;5.57;;;;;;;;;;4958809;28;20161;-74
2021/08/02 04:40:48;;;;;;;9.13;4.93;;;;;;;;;;4975785;28;20054;-74
2021/08/02 04:43:14;;;;;;;10.85;4.93;;;;;;;;;;4976181;28;20453;-74
2021/08/02 04:45:40;;;;;;;9.93;5.00;;;;;;;;;;4976102;28;20031;-74
2021/08/02 04:48:06;;;;;;;11.55;5.63;;;;;;;;;;4976059;28;20398;-74
2021/08/02 04:50:32;;;;;;;8.77;4.70;;;;;;;;;;4975947;28;20031;-74
2021/08/02 04:52:58;;;;;;;10.27;4.78;;;;;;;;;;4975961;28;20041;-75
2021/08/02 04:55:24;;;;;;;8.63;4.57;;;;;;;;;;4976206;28;20030;-73
2021/08/02 04:57:50;;;;;;;8.90;5.55;;;;;;;;;;4958475;28;20394;-74
2021/08/02 05:00:17;;;;;;;12.30;5.65;;;;;;;;;;4975835;28;20432;-73
2021/08/02 05:02:43;;;;;;;10.60;5.10;;;;;;;;;;4958430;28;20030;-74
2021/08/02 05:05:09;;;;;;;9.18;4.75;;;;;;;;;;4976012;28;20037;-74
2021/08/02 05:07:35;;;;;;;10.25;5.47;;;;;;;;;;4975726;28;20458;-73
2021/08/02 05:10:01;;;;;;;8.93;4.85;;;;;;;;;;4975637;28;20027;-74
2021/08/02 05:12:27;;;;;;;11.15;5.28;;;;;;;;;;4975795;28;20105;-73
2021/08/02 05:14:53;;;;;;;8.75;5.40;;;;;;;;;;4975558;28;20023;-74
2021/08/02 05:17:19;;;;;;;7.95;4.47;;;;;;;;;;4975760;28;20023;-74
2021/08/02 05:19:45;;;;;;;9.18;4.43;;;;;;;;;;4975431;28;20510;-74
2021/08/02 05:22:11;;;;;;;11.60;5.28;;;;;;;;;;4975437;28;20018;-73
2021/08/02 05:24:37;;;;;;;8.73;4.55;;;;;;;;;;4975379;28;20037;-74
2021/08/02 05:27:03;;;;;;;9.75;4.70;;;;;;;;;;4975316;28;20019;-74
2021/08/02 05:29:29;;;;;;;10.20;5.05;;;;;;;;;;4975529;28;20114;-74
2021/08/02 05:31:55;;;;;;;6.43;3.80;;;;;;;;;;4974782;28;20537;-74
2021/08/02 05:34:21;;;;;;;8.00;4.53;;;;;;;;;;4957856;28;20502;-75
2021/08/02 05:36:47;;;;;;;7.43;3.90;;;;;;;;;;4975062;28;20019;-74
2021/08/02 05:39:13;;;;;;;10.95;4.65;;;;;;;;;;4975113;28;20034;-74
2021/08/02 05:41:39;;;;;;;7.32;4.03;;;;;;;;;;4975422;28;20027;-73
2021/08/02 05:44:05;;;;;;;9.63;4.28;;;;;;;;;;4975276;28;20030;-73
2021/08/02 05:46:31;;;;;;;7.13;4.32;;;;;;;;;;4975011;28;20027;-74
2021/08/02 05:48:57;;;;;;;7.97;4.20;;;;;;;;;;4974990;28;20031;-74
2021/08/02 05:51:23;;;;;;;11.98;4.85;;;;;;;;;;4974846;28;20517;-74
2021/08/02 05:53:49;;;;;;;10.07;4.25;;;;;;;;;;4974881;28;20027;-74
2021/08/02 05:56:16;;;;;;;12.60;4.57;;;;;;;;;;4975095;28;20030;-73
2021/08/02 05:58:42;;;;;;;10.25;4.70;;;;;;;;;;4957429;28;20113;-75
2021/08/02 06:01:08;;;;;;;7.78;4.45;;;;;;;;;;4975012;28;20039;-74
2021/08/02 06:03:34;;;;;;;7.35;4.43;;;;;;;;;;4974749;28;20037;-74
2021/08/02 06:06:02;;;;;;;7.63;4.28;;;;;;;;;;4975014;28;20065;-74
2021/08/02 06:08:28;;;;;;;8.07;4.32;;;;;;;;;;4974722;28;20073;-73
2021/08/02 06:10:54;;;;;;;8.43;4.65;;;;;;;;;;4974577;28;20031;-74
2021/08/02 06:13:20;;;;;;;7.82;4.57;;;;;;;;;;4974886;28;20438;-74
2021/08/02 06:15:46;;;;;;;8.07;4.80;;;;;;;;;;4974571;28;20367;-74
2021/08/02 06:18:12;;;;;;;9.20;5.22;;;;;;;;;;4957490;28;20383;-73
2021/08/02 06:20:38;;;;;;;8.50;4.97;;;;;;;;;;4974509;28;20026;-73
2021/08/02 06:23:04;;;;;;;8.40;4.75;;;;;;;;;;4974496;28;20023;-73
2021/08/02 06:25:30;;;;;;;12.00;5.00;;;;;;;;;;4975054;28;20019;-73
2021/08/02 06:27:57;;;;;;;11.90;5.40;;;;;;;;;;4974740;28;20023;-73
2021/08/02 06:30:24;;;;;;;6.97;4.15;;;;;;;;;;4974369;28;20025;-74
2021/08/02 06:32:50;;;;;;;9.77;5.25;;;;;;;;;;4974664;28;20046;-74
2021/08/02 06:35:16;;;;;;;10.10;5.82;;;;;;;;;;4974657;28;20027;-73
2021/08/02 06:37:42;;;;;;;13.27;4.57;;;;;;;;;;4974552;28;20031;-73
2021/08/02 06:40:10;;;;;;;9.10;4.88;;;;;;;;;;4974358;28;20078;-74
2021/08/02 06:42:36;;;;;;;10.25;5.18;;;;;;;;;;4975213;28;20026;-73
2021/08/02 06:45:02;;;;;;;9.65;5.45;;;;;;;;;;4978308;28;20475;-73
2021/08/02 06:47:28;;;;;;;9.27;5.72;;;;;;;;;;4978549;28;20069;-75
2021/08/02 06:49:54;;;;;;;8.13;5.20;;;;;;;;;;4978501;28;20023;-75
2021/08/02 06:52:20;;;;;;;11.43;5.10;;;;;;;;;;4978402;28;20031;-76
2021/08/02 06:54:46;;;;;;;10.38;5.60;;;;;;;;;;4978124;28;20023;-75
2021/08/02 06:57:12;;;;;;;11.80;5.22;;;;;;;;;;4978365;28;20034;-75
2021/08/02 06:59:38;;;;;;;10.43;5.50;;;;;;;;;;4978310;28;20049;-75
2021/08/02 07:02:04;;;;;;;7.68;5.03;;;;;;;;;;4960594;28;20379;-75
2021/08/02 07:04:30;;;;;;;11.40;5.43;;;;;;;;;;4977974;28;20107;-74
2021/08/02 07:06:56;;;;;;;11.73;5.70;;;;;;;;;;4977869;28;20070;-73
2021/08/02 07:09:22;;;;;;;12.88;5.93;;;;;;;;;;4977815;28;20395;-74
2021/08/02 07:11:48;;;;;;;9.70;5.43;;;;;;;;;;4977713;28;20039;-75
2021/08/02 07:14:14;;;;;;;9.00;5.68;;;;;;;;;;4978008;28;20493;-79
2021/08/02 07:16:40;;;;;;;8.88;5.47;;;;;;;;;;4977376;28;20029;-79
2021/08/02 07:19:06;;;;;;;11.65;5.38;;;;;;;;;;4960320;28;20089;-84
2021/08/02 07:21:32;;;;;;;10.52;5.50;;;;;;;;;;4977198;28;20106;-80
2021/08/02 07:23:58;;;;;;;11.38;5.43;;;;;;;;;;4976936;28;20034;-81
2021/08/02 07:26:26;;;;;;;9.43;5.60;;;;;;;;;;4977596;28;20031;-81
2021/08/02 07:28:52;;;;;;;12.05;5.85;;;;;;;;;;4960138;28;20027;-76
2021/08/02 07:31:18;;;;;;;11.02;6.43;;;;;;;;;;4976950;28;20042;-77
2021/08/02 07:33:44;;;;;;;10.20;5.70;;;;;;;;;;4976930;28;20055;-76
2021/08/02 07:36:10;;;;;;;11.80;5.38;;;;;;;;;;4977573;28;20023;-77
2021/08/02 07:38:37;;;;;;;10.75;5.35;;;;;;;;;;4977033;28;20026;-76
2021/08/02 07:41:03;;;;;;;10.50;5.95;;;;;;;;;;4977085;28;20046;-77
2021/08/02 07:43:29;;;;;;;10.07;5.68;;;;;;;;;;4977246;28;20026;-84
2021/08/02 07:45:55;;;;;;;11.30;5.68;;;;;;;;;;4977396;28;20027;-83
2021/08/02 07:48:21;;;;;;;11.45;6.40;;;;;;;;;;4978024;28;20038;-78
2021/08/02 07:50:47;;;;;;;13.15;6.60;;;;;;;;;;4976568;28;20050;-80
2021/08/02 07:53:13;;;;;;;10.68;5.22;;;;;;;;;;4977095;28;20030;-76
2021/08/02 07:55:39;;;;;;;10.10;5.57;;;;;;;;;;4976810;28;20424;-77
2021/08/02 07:58:09;;;;;;;10.35;6.05;;;;;;;;;;4977295;28;20025;-78
2021/08/02 08:00:35;;;;;;;10.07;6.15;;;;;;;;;;4976954;28;20026;-80
2021/08/02 08:03:01;;;;;;;10.48;5.82;;;;;;;;;;4977123;28;20074;-76
2021/08/02 08:05:29;;;;;;;10.05;6.85;;;;;;;;;;4977023;28;20027;-76
2021/08/02 08:07:55;;;;;;;10.05;6.25;;;;;;;;;;4959650;28;20497;-79
2021/08/02 08:10:22;;;;;;;9.35;5.30;;;;;;;;;;4977404;28;20106;-80
2021/08/02 08:12:48;;;;;;;9.35;6.13;;;;;;;;;;4976534;28;20102;-78
2021/08/02 08:15:14;;;;;;;12.38;6.47;;;;;;;;;;4976790;28;20026;-77
2021/08/02 08:17:40;;;;;;;10.45;6.68;;;;;;;;;;4976647;28;20089;-77
2021/08/02 08:20:08;;;;;;;10.70;6.50;;;;;;;;;;4976675;28;20084;-86
2021/08/02 08:22:34;;;;;;;9.20;6.32;;;;;;;;;;4959191;28;20023;-77
2021/08/02 08:25:00;;;;;;;11.25;6.90;;;;;;;;;;4976258;28;20514;-78
2021/08/02 08:27:26;;;;;;;10.88;6.72;;;;;;;;;;4976380;28;20034;-78
2021/08/02 08:29:52;;;;;;;9.70;5.72;;;;;;;;;;4976446;28;20077;-77
2021/08/02 08:32:18;;;;;;;11.02;6.65;;;;;;;;;;4975593;28;20031;-78
2021/08/02 08:34:44;;;;;;;9.32;5.90;;;;;;;;;;4976262;28;20038;-78
2021/08/02 08:37:10;;;;;;;10.65;6.82;;;;;;;;;;4976211;28;20023;-79
2021/08/02 08:39:36;;;;;;;9.98;6.32;;;;;;;;;;4976205;28;20047;-78
2021/08/02 08:42:02;;;;;;;12.57;7.30;;;;;;;;;;4976157;28;20435;-78
2021/08/02 08:44:29;;;;;;;10.48;6.72;;;;;;;;;;4958561;28;20093;-78
2021/08/02 08:46:55;;;;;;;10.85;6.82;;;;;;;;;;4975897;28;20372;-79
2021/08/02 08:49:21;;;;;;;9.90;6.18;;;;;;;;;;4975600;28;20034;-82
2021/08/02 08:51:48;;;;;;;8.88;6.28;;;;;;;;;;4958612;28;20372;-80
2021/08/02 08:54:14;;;;;;;8.60;5.85;;;;;;;;;;4976093;28;20027;-79
2021/08/02 08:56:40;;;;;;;9.68;6.00;;;;;;;;;;4975878;28;20030;-80
2021/08/02 08:59:06;;;;;;;10.20;5.88;;;;;;;;;;4975863;28;20042;-79
2021/08/02 09:01:32;;;;;;;11.43;7.00;;;;;;;;;;4975925;28;20030;-77
2021/08/02 09:04:01;;;;;;;10.40;5.85;;;;;;;;;;4976004;28;20039;-80
2021/08/02 09:06:27;;;;;;;10.93;6.53;;;;;;;;;;4957452;28;20507;-80
2021/08/02 09:08:54;;;;;;;9.82;6.40;;;;;;;;;;4975485;28;20290;-79
2021/08/02 09:11:21;;;;;;;9.00;6.40;;;;;;;;;;4958261;28;20030;-86
2021/08/02 09:13:47;;;;;;;11.80;6.43;;;;;;;;;;4975403;28;20027;-83
2021/08/02 09:16:20;;;;;;;8.70;6.20;;;;;;;;;;4975786;28;20027;-78
2021/08/02 09:18:57;;;;;;;8.57;5.25;;;;;;;;;;4974136;28;20022;-78
2021/08/02 09:21:23;;;;;;;8.35;5.57;;;;;;;;;;4975257;28;20078;-77
2021/08/02 09:23:50;;;;;;;9.45;5.78;;;;;;;;;;4975296;28;20062;-78
2021/08/02 09:26:16;;;;;;;8.75;5.47;;;;;;;;;;4975166;28;20031;-80
2021/08/02 09:28:51;;;;;;;6.82;4.85;;;;;;;;;;5132212;27;20467;-77
2021/08/02 09:31:17;;;;;;;8.23;5.55;;;;;;;;;;5110837;28;20023;-78
2021/08/02 09:33:46;;;;;;;9.32;5.75;;;;;;;;;;5111380;28;20107;-77
2021/08/02 09:36:12;;;;;;;10.30;6.32;;;;;;;;;;5098246;28;20024;-78
2021/08/02 09:38:38;;;;;;;9.05;5.68;;;;;;;;;;5090597;28;20033;-77
2021/08/02 09:41:04;;;;;;;8.75;5.93;;;;;;;;;;5092416;28;20073;-77
2021/08/02 09:43:31;;;;;;;8.18;5.90;;;;;;;;;;5110907;28;20441;-79
2021/08/02 09:45:58;;;;;;;9.88;6.28;;;;;;;;;;5109349;28;20024;-80
2021/08/02 09:48:33;;;;;;;8.50;5.93;;;;;;;;;;5090952;28;20035;-79
2021/08/02 09:51:06;;;;;;;9.73;5.45;;;;;;;;;;5093213;28;20086;-80
2021/08/02 09:53:36;;;;;;;9.10;5.65;;;;;;;;;;5111169;28;20024;-79
2021/08/02 09:56:02;;;;;;;8.27;4.57;;;;;;;;;;5093952;28;20020;-80
2021/08/02 09:58:28;;;;;;;7.80;5.78;;;;;;;;;;5090226;28;20500;-79
2021/08/02 10:00:54;;;;;;;10.50;5.43;;;;;;;;;;5090551;28;20099;-80
2021/08/02 10:03:21;;;;;;;7.68;5.60;;;;;;;;;;5090505;28;20036;-82
2021/08/02 10:05:49;;;;;;;7.70;5.10;;;;;;;;;;5090134;28;20422;-82
2021/08/02 10:08:17;;;;;;;7.05;4.95;;;;;;;;;;5071930;28;20033;-81
2021/08/02 10:10:44;;;;;;;8.32;5.57;;;;;;;;;;5091940;28;20024;-86
2021/08/02 10:13:10;;;;;;;7.15;5.00;;;;;;;;;;5092747;28;20031;-78
2021/08/02 10:15:36;;;;;;;9.10;4.97;;;;;;;;;;5110561;28;20363;-81
2021/08/02 10:18:04;;;;;;;8.35;4.45;;;;;;;;;;5110206;28;20466;-81
2021/08/02 10:20:30;;;;;;;6.85;4.50;;;;;;;;;;5110604;28;20479;-80
2021/08/02 10:22:57;;;;;;;8.15;4.60;;;;;;;;;;5110163;28;20034;-83
2021/08/02 10:25:39;;;;;;;8.85;5.35;;;;;;;;;;5110190;28;20019;-85
2021/08/02 10:28:09;;;;;;;7.50;4.68;;;;;;;;;;5095827;28;20041;-78
2021/08/02 10:30:36;;;;;;;8.18;4.75;;;;;;;;;;5089705;28;20633;-77
2021/08/02 10:33:02;;;;;;;5.50;4.32;;;;;;;;;;5088053;28;20021;-77
2021/08/02 10:35:35;;;;;;;9.20;5.10;;;;;;;;;;5089501;28;20017;-78
2021/08/02 10:38:06;;;;;;;7.80;4.32;;;;;;;;;;5088479;28;20107;-78
2021/08/02 10:40:50;;;;;;;6.15;4.03;;;;;;;;;;5075382;28;20027;-78
2021/08/02 10:43:29;;;;;;;5.70;4.05;;;;;;;;;;5075817;28;20032;-77
2021/08/02 10:45:56;;;;;;;8.77;4.18;;;;;;;;;;5075845;28;20051;-78
2021/08/02 10:48:29;;;;;;;5.55;3.97;;;;;;;;;;5057816;28;20075;-77
2021/08/02 10:50:55;;;;;;;7.25;4.28;;;;;;;;;;5075737;28;20096;-78
2021/08/02 10:53:21;;;;;;;6.85;3.50;;;;;;;;;;5075751;28;20091;-77
2021/08/02 10:55:52;;;;;;;6.38;4.10;;;;;;;;;;5075733;28;20055;-76
2021/08/02 10:58:41;;;;;;;3.85;2.97;;;;;;;;;;5075869;28;20024;-78
2021/08/02 11:01:11;;;;;;;6.05;3.30;;;;;;;;;;5075636;28;20024;-76
2021/08/02 11:03:38;;;;;;;4.60;3.20;;;;;;;;;;5076167;28;20149;-77
2021/08/02 11:06:11;;;;;;;5.72;3.50;;;;;;;;;;5075555;28;20489;-76
2021/08/02 11:09:04;;;;;;;5.15;3.40;;;;;;;;;;5075406;28;20104;-77
2021/08/02 11:11:31;;;;;;;5.78;3.22;;;;;;;;;;5071517;28;20036;-78
2021/08/02 11:14:13;;;;;;;5.78;3.70;;;;;;;;;;5075371;28;20089;-78
2021/08/02 11:16:43;;;;;;;4.93;3.10;;;;;;;;;;5075344;28;20025;-78
2021/08/02 11:19:23;;;;;;;5.38;3.25;;;;;;;;;;5075319;28;20422;-78
2021/08/02 11:21:58;;;;;;;5.57;3.47;;;;;;;;;;5075570;28;20078;-77
2021/08/02 11:24:24;;;;;;;9.77;4.03;;;;;;;;;;5075759;28;20079;-76
2021/08/02 11:26:54;;;;;;;6.53;3.83;;;;;;;;;;5074898;28;20493;-78
2021/08/02 11:29:21;;;;;;;5.43;3.88;;;;;;;;;;5075163;28;20021;-77
2021/08/02 11:32:16;;;;;;;6.38;4.13;;;;;;;;;;5075044;28;20021;-77
2021/08/02 11:34:44;;;;;;;6.80;4.75;;;;;;;;;;5053614;28;20068;-78
2021/08/02 11:37:14;;;;;;;5.90;3.90;;;;;;;;;;5074852;28;20032;-77
2021/08/02 11:39:44;;;;;;;6.18;4.07;;;;;;;;;;5074906;28;20048;-77
2021/08/02 11:42:11;;;;;;;8.20;4.72;;;;;;;;;;5074785;28;20028;-76
2021/08/02 11:44:39;;;;;;;7.10;4.60;;;;;;;;;;5075289;28;20028;-76
2021/08/02 11:47:07;;;;;;;8.10;5.18;;;;;;;;;;5074915;28;20071;-77
2021/08/02 11:49:34;;;;;;;8.35;4.50;;;;;;;;;;5074513;28;20029;-77
2021/08/02 11:52:00;;;;;;;9.77;5.00;;;;;;;;;;5074069;28;20025;-77
2021/08/02 11:54:27;;;;;;;8.00;4.43;;;;;;;;;;5074574;28;20025;-76
2021/08/02 11:56:53;;;;;;;8.13;4.65;;;;;;;;;;5074477;28;20454;-78
2021/08/02 11:59:20;;;;;;;8.07;5.07;;;;;;;;;;5074540;28;20035;-78
2021/08/02 12:01:47;;;;;;;8.73;5.63;;;;;;;;;;5074449;28;20028;-78
2021/08/02 12:04:13;;;;;;;7.78;5.50;;;;;;;;;;5074400;28;20030;-79
2021/08/02 12:06:58;;;;;;;9.40;4.93;;;;;;;;;;5074293;28;20025;-76
2021/08/02 12:09:37;;;;;;;8.93;4.93;;;;;;;;;;5065895;28;20078;-76
2021/08/02 12:12:04;;;;;;;8.07;4.77;;;;;;;;;;5056848;28;20378;-78
2021/08/02 12:14:31;;;;;;;6.55;4.75;;;;;;;;;;5060526;28;20012;-78
2021/08/02 12:17:01;;;;;;;8.18;4.93;;;;;;;;;;5057912;28;20025;-77
2021/08/02 12:19:27;;;;;;;8.77;4.82;;;;;;;;;;5054221;28;20021;-80
2021/08/02 12:21:57;;;;;;;10.00;4.90;;;;;;;;;;5054963;28;20037;-78
2021/08/02 12:24:23;;;;;;;8.38;5.07;;;;;;;;;;5072633;28;20056;-78
2021/08/02 12:26:49;;;;;;;8.20;5.00;;;;;;;;;;5058451;28;20076;-78
2021/08/02 12:29:22;;;;;;;7.68;5.10;;;;;;;;;;5064631;28;20021;-78
2021/08/02 12:31:59;;;;;;;8.70;4.60;;;;;;;;;;5054157;28;20028;-82
2021/08/02 12:34:25;;;;;;;8.13;4.57;;;;;;;;;;5071285;28;20040;-81
2021/08/02 12:36:54;;;;;;;6.65;4.55;;;;;;;;;;5073902;28;20032;-80
2021/08/02 12:39:20;;;;;;;6.82;4.57;;;;;;;;;;5059105;28;20028;-82
2021/08/02 12:41:46;;;;;;;7.93;4.90;;;;;;;;;;5055286;28;20039;-79
2021/08/02 12:44:14;;;;;;;5.78;3.85;;;;;;;;;;5073939;28;20064;-85
2021/08/02 12:46:40;;;;;;;8.40;4.85;;;;;;;;;;5046351;28;20037;-83
2021/08/02 12:49:06;;;;;;;6.43;4.32;;;;;;;;;;5053809;28;20021;-77
2021/08/02 12:51:32;;;;;;;7.80;4.72;;;;;;;;;;5070757;28;20499;-80
2021/08/02 12:53:58;;;;;;;8.82;4.50;;;;;;;;;;5071498;28;20029;-82
2021/08/02 12:56:24;;;;;;;7.57;4.70;;;;;;;;;;5054449;28;20028;-80
2021/08/02 12:58:50;;;;;;;7.82;4.68;;;;;;;;;;5053570;28;20025;-81
2021/08/02 13:01:16;;;;;;;7.30;4.78;;;;;;;;;;5053185;28;20100;-84
2021/08/02 13:03:43;;;;;;;8.13;4.75;;;;;;;;;;5053758;28;20033;-83
2021/08/02 13:06:12;;;;;;;9.88;5.68;;;;;;;;;;5067650;28;20028;-82
2021/08/02 13:08:38;;;;;;;12.82;6.68;;;;;;;;;;5073556;28;20033;-81
2021/08/02 13:11:05;;;;;;;10.70;6.00;;;;;;;;;;5057855;28;20106;-79
2021/08/02 13:13:31;;;;;;;8.82;5.35;;;;;;;;;;5054023;28;20091;-76
2021/08/02 13:15:58;;;;;;;8.30;5.10;;;;;;;;;;5053730;28;20025;-78
2021/08/02 13:18:24;;;;;;;12.27;6.18;;;;;;;;;;5057718;28;20033;-84
2021/08/02 13:20:50;;;;;;;9.10;5.43;;;;;;;;;;5053221;28;20029;-79
2021/08/02 13:23:30;;;;;;;9.07;5.32;;;;;;;;;;5053028;28;20025;-89
2021/08/02 13:28:42;;;;;;;8.32;5.53;;;;;;;;;;5052750;28;20064;-86
2021/08/02 13:31:09;;;;;;;8.48;4.88;;;;;;;;;;5048725;28;20070;-77
2021/08/02 13:33:35;;;;;;;8.65;5.70;;;;;;;;;;5057166;28;20371;-85
2021/08/02 13:36:01;;;;;;;8.45;5.13;;;;;;;;;;5053281;28;20431;-86
2021/08/02 13:38:27;;;;;;;7.32;5.28;;;;;;;;;;5035616;28;20025;-82
2021/08/02 13:40:54;;;;;;;6.97;4.68;;;;;;;;;;5053186;28;20488;-79
2021/08/02 13:43:20;;;;;;;7.88;4.45;;;;;;;;;;5053063;28;20484;-78
2021/08/02 13:45:46;;;;;;;8.40;4.82;;;;;;;;;;5053058;28;20043;-82
2021/08/02 13:48:12;;;;;;;6.72;4.25;;;;;;;;;;5053194;28;20489;-82
2021/08/02 13:50:39;;;;;;;6.72;4.60;;;;;;;;;;5052436;28;20086;-82
2021/08/02 13:53:05;;;;;;;8.43;4.32;;;;;;;;;;5051699;28;20032;-78
2021/08/02 13:55:32;;;;;;;5.88;3.85;;;;;;;;;;5053422;28;20036;-87
2021/08/02 13:57:58;;;;;;;6.47;3.88;;;;;;;;;;5034943;28;20029;-81
2021/08/02 14:00:24;;;;;;;5.57;3.45;;;;;;;;;;5053173;28;20040;-79
2021/08/02 14:02:50;;;;;;;5.93;4.05;;;;;;;;;;5052769;28;20028;-79
2021/08/02 14:05:17;;;;;;;6.28;4.00;;;;;;;;;;5052825;28;20025;-75
2021/08/02 14:07:43;;;;;;;6.57;4.22;;;;;;;;;;5052681;28;20025;-75
2021/08/02 14:10:09;;;;;;;7.63;4.10;;;;;;;;;;5060810;28;20438;-80
2021/08/02 14:12:37;;;;;;;4.90;3.72;;;;;;;;;;5063291;28;20096;-80
2021/08/02 14:15:07;;;;;;;6.57;3.90;;;;;;;;;;5055593;28;20021;-80
2021/08/02 14:17:50;;;;;;;6.00;3.78;;;;;;;;;;5056523;28;20104;-79
2021/08/02 14:20:17;;;;;;;6.70;3.90;;;;;;;;;;5057025;28;20472;-77
2021/08/02 14:22:43;;;;;;;6.05;3.85;;;;;;;;;;5056378;28;20051;-78
2021/08/02 14:25:09;;;;;;;6.47;4.03;;;;;;;;;;5056327;28;20067;-78
2021/08/02 14:27:35;;;;;;;7.30;4.20;;;;;;;;;;5056112;28;20152;-79
2021/08/02 14:30:04;;;;;;;6.53;4.00;;;;;;;;;;5056243;28;20181;-77
2021/08/02 14:32:30;;;;;;;5.78;3.78;;;;;;;;;;5056022;28;20448;-76
2021/08/02 14:34:56;;;;;;;5.78;3.53;;;;;;;;;;5062918;28;20025;-76
2021/08/02 14:37:23;;;;;;;6.55;3.63;;;;;;;;;;5063123;28;20025;-75
2021/08/02 14:39:50;;;;;;;7.80;4.10;;;;;;;;;;5076302;28;20025;-75
2021/08/02 14:42:17;;;;;;;6.65;3.88;;;;;;;;;;5074386;28;20039;-75
2021/08/02 14:44:43;;;;;;;6.78;4.15;;;;;;;;;;5067609;28;20028;-76